sensor_id;sensor_type;location;lat;lon;timestamp;P1;durP1;ratioP1;P2;durP2;ratioP2
3645;SDS011;1839;48.060;11.662;2022-07-23T05:01:25;22.50;;;6.17;;
3645;SDS011;1839;48.060;11.662;2022-07-23T05:03:52;18.73;;;6.87;;
3645;SDS011;1839;48.060;11.662;2022-07-23T05:06:19;22.00;;;7.30;;
3645;SDS011;1839;48.060;11.662;2022-07-23T05:08:46;15.77;;;7.57;;
3645;SDS011;1839;48.060;11.662;2022-07-23T05:11:13;13.30;;;5.27;;
3645;SDS011;1839;48.060;11.662;2022-07-23T05:13:40;15.00;;;5.77;;
3645;SDS011;1839;48.060;11.662;2022-07-23T05:16:08;16.13;;;5.10;;
3645;SDS011;1839;48.060;11.662;2022-07-23T05:18:36;16.83;;;5.67;;
3645;SDS011;1839;48.060;11.662;2022-07-23T05:21:03;16.33;;;5.03;;
3645;SDS011;1839;48.060;11.662;2022-07-23T05:23:31;16.07;;;5.53;;
3645;SDS011;1839;48.060;11.662;2022-07-23T05:25:58;14.87;;;6.50;;
3645;SDS011;1839;48.060;11.662;2022-07-23T05:28:25;15.77;;;5.57;;
3645;SDS011;1839;48.060;11.662;2022-07-23T05:30:52;14.07;;;4.87;;
3645;SDS011;1839;48.060;11.662;2022-07-23T05:33:19;14.57;;;6.03;;
3645;SDS011;1839;48.060;11.662;2022-07-23T05:35:48;16.07;;;5.33;;
3645;SDS011;1839;48.060;11.662;2022-07-23T05:38:15;13.97;;;5.50;;
3645;SDS011;1839;48.060;11.662;2022-07-23T05:40:42;19.03;;;6.27;;
3645;SDS011;1839;48.060;11.662;2022-07-23T05:43:10;13.90;;;5.60;;
3645;SDS011;1839;48.060;11.662;2022-07-23T05:45:37;15.40;;;5.80;;
3645;SDS011;1839;48.060;11.662;2022-07-23T05:48:04;13.83;;;5.10;;
3645;SDS011;1839;48.060;11.662;2022-07-23T05:50:31;14.07;;;5.90;;
3645;SDS011;1839;48.060;11.662;2022-07-23T05:53:00;13.33;;;5.60;;
3645;SDS011;1839;48.060;11.662;2022-07-23T05:55:27;14.57;;;5.10;;
3645;SDS011;1839;48.060;11.662;2022-07-23T05:57:56;11.97;;;4.83;;
3645;SDS011;1839;48.060;11.662;2022-07-23T06:00:24;14.47;;;5.37;;
3645;SDS011;1839;48.060;11.662;2022-07-23T06:02:52;12.10;;;4.83;;
3645;SDS011;1839;48.060;11.662;2022-07-23T06:05:19;12.93;;;5.40;;
3645;SDS011;1839;48.060;11.662;2022-07-23T06:07:46;15.73;;;5.60;;
3645;SDS011;1839;48.060;11.662;2022-07-23T06:10:15;15.50;;;6.80;;
3645;SDS011;1839;48.060;11.662;2022-07-23T06:12:42;16.87;;;6.50;;
3645;SDS011;1839;48.060;11.662;2022-07-23T06:15:10;14.10;;;5.63;;
3645;SDS011;1839;48.060;11.662;2022-07-23T06:17:37;16.60;;;5.90;;
3645;SDS011;1839;48.060;11.662;2022-07-23T06:20:05;15.53;;;6.70;;
3645;SDS011;1839;48.060;11.662;2022-07-23T06:22:32;14.90;;;5.77;;
3645;SDS011;1839;48.060;11.662;2022-07-23T06:25:00;15.10;;;5.90;;
3645;SDS011;1839;48.060;11.662;2022-07-23T06:27:28;14.27;;;5.70;;
3645;SDS011;1839;48.060;11.662;2022-07-23T06:29:56;14.70;;;6.43;;
3645;SDS011;1839;48.060;11.662;2022-07-23T06:32:23;16.23;;;5.67;;
3645;SDS011;1839;48.060;11.662;2022-07-23T06:34:50;13.90;;;6.30;;
3645;SDS011;1839;48.060;11.662;2022-07-23T06:37:17;16.87;;;6.80;;
3645;SDS011;1839;48.060;11.662;2022-07-23T06:39:44;22.20;;;7.70;;
3645;SDS011;1839;48.060;11.662;2022-07-23T06:42:11;16.50;;;6.60;;
3645;SDS011;1839;48.060;11.662;2022-07-23T06:44:41;14.27;;;6.30;;
3645;SDS011;1839;48.060;11.662;2022-07-23T06:47:08;15.87;;;6.60;;
3645;SDS011;1839;48.060;11.662;2022-07-23T06:49:35;14.50;;;6.60;;
3645;SDS011;1839;48.060;11.662;2022-07-23T06:52:02;20.17;;;6.83;;
3645;SDS011;1839;48.060;11.662;2022-07-23T06:54:30;15.30;;;6.17;;
3645;SDS011;1839;48.060;11.662;2022-07-23T06:56:57;17.43;;;7.90;;
3645;SDS011;1839;48.060;11.662;2022-07-23T06:59:24;15.33;;;8.07;;
3645;SDS011;1839;48.060;11.662;2022-07-23T07:01:53;15.97;;;5.83;;
3645;SDS011;1839;48.060;11.662;2022-07-23T07:04:20;18.40;;;9.20;;
3645;SDS011;1839;48.060;11.662;2022-07-23T07:06:47;15.50;;;5.80;;
3645;SDS011;1839;48.060;11.662;2022-07-23T07:09:14;14.00;;;6.40;;
3645;SDS011;1839;48.060;11.662;2022-07-23T07:11:43;17.03;;;8.70;;
3645;SDS011;1839;48.060;11.662;2022-07-23T07:14:10;16.50;;;7.77;;
3645;SDS011;1839;48.060;11.662;2022-07-23T07:16:37;19.07;;;6.77;;
3645;SDS011;1839;48.060;11.662;2022-07-23T07:19:05;14.17;;;5.73;;
3645;SDS011;1839;48.060;11.662;2022-07-23T07:21:33;18.87;;;8.20;;
3645;SDS011;1839;48.060;11.662;2022-07-23T07:24:00;16.00;;;7.83;;
3645;SDS011;1839;48.060;11.662;2022-07-23T07:26:27;13.23;;;5.57;;
3645;SDS011;1839;48.060;11.662;2022-07-23T07:28:55;17.03;;;6.57;;
3645;SDS011;1839;48.060;11.662;2022-07-23T07:31:23;13.93;;;5.47;;
3645;SDS011;1839;48.060;11.662;2022-07-23T07:33:50;14.50;;;5.90;;
3645;SDS011;1839;48.060;11.662;2022-07-23T07:36:18;16.43;;;8.20;;
3645;SDS011;1839;48.060;11.662;2022-07-23T07:38:46;14.60;;;5.47;;
3645;SDS011;1839;48.060;11.662;2022-07-23T07:41:13;14.97;;;6.20;;
3645;SDS011;1839;48.060;11.662;2022-07-23T07:43:40;14.80;;;5.60;;
3645;SDS011;1839;48.060;11.662;2022-07-23T07:46:08;16.43;;;6.20;;
3645;SDS011;1839;48.060;11.662;2022-07-23T07:48:36;16.40;;;6.47;;
3645;SDS011;1839;48.060;11.662;2022-07-23T07:51:03;23.30;;;5.40;;
3645;SDS011;1839;48.060;11.662;2022-07-23T07:53:31;15.83;;;5.50;;
3645;SDS011;1839;48.060;11.662;2022-07-23T07:55:59;15.83;;;6.93;;
3645;SDS011;1839;48.060;11.662;2022-07-23T07:58:26;13.60;;;6.10;;
3645;SDS011;1839;48.060;11.662;2022-07-23T08:00:53;17.73;;;6.70;;
3645;SDS011;1839;48.060;11.662;2022-07-23T08:03:20;22.80;;;6.37;;
3645;SDS011;1839;48.060;11.662;2022-07-23T08:05:47;15.73;;;6.60;;
3645;SDS011;1839;48.060;11.662;2022-07-23T08:08:14;13.57;;;5.33;;
3645;SDS011;1839;48.060;11.662;2022-07-23T08:10:43;18.10;;;7.23;;
3645;SDS011;1839;48.060;11.662;2022-07-23T08:13:12;14.30;;;6.50;;
3645;SDS011;1839;48.060;11.662;2022-07-23T08:15:39;17.23;;;7.27;;
3645;SDS011;1839;48.060;11.662;2022-07-23T08:18:06;16.27;;;7.63;;
3645;SDS011;1839;48.060;11.662;2022-07-23T08:20:34;19.00;;;10.00;;
3645;SDS011;1839;48.060;11.662;2022-07-23T08:23:02;17.90;;;6.87;;
3645;SDS011;1839;48.060;11.662;2022-07-23T08:25:30;17.40;;;7.33;;
3645;SDS011;1839;48.060;11.662;2022-07-23T08:27:59;19.67;;;7.97;;
3645;SDS011;1839;48.060;11.662;2022-07-23T08:30:26;13.03;;;5.60;;
3645;SDS011;1839;48.060;11.662;2022-07-23T08:32:55;17.07;;;6.73;;
3645;SDS011;1839;48.060;11.662;2022-07-23T08:35:26;18.10;;;6.77;;
3645;SDS011;1839;48.060;11.662;2022-07-23T08:37:54;20.20;;;6.77;;
3645;SDS011;1839;48.060;11.662;2022-07-23T08:40:21;19.17;;;7.33;;
3645;SDS011;1839;48.060;11.662;2022-07-23T08:42:49;14.50;;;6.30;;
3645;SDS011;1839;48.060;11.662;2022-07-23T08:45:19;14.80;;;6.30;;
3645;SDS011;1839;48.060;11.662;2022-07-23T08:47:48;13.83;;;5.90;;
3645;SDS011;1839;48.060;11.662;2022-07-23T08:50:16;19.57;;;6.10;;
3645;SDS011;1839;48.060;11.662;2022-07-23T08:52:43;12.50;;;5.30;;
3645;SDS011;1839;48.060;11.662;2022-07-23T08:55:10;12.97;;;5.30;;
3645;SDS011;1839;48.060;11.662;2022-07-23T08:57:38;15.13;;;4.90;;
3645;SDS011;1839;48.060;11.662;2022-07-23T09:00:05;13.20;;;5.47;;
3645;SDS011;1839;48.060;11.662;2022-07-23T09:02:39;16.23;;;5.70;;
3645;SDS011;1839;48.060;11.662;2022-07-23T09:05:07;13.07;;;5.57;;
3645;SDS011;1839;48.060;11.662;2022-07-23T09:07:35;15.90;;;5.97;;
3645;SDS011;1839;48.060;11.662;2022-07-23T09:10:07;13.90;;;5.43;;
3645;SDS011;1839;48.060;11.662;2022-07-23T09:12:34;14.93;;;5.80;;
3645;SDS011;1839;48.060;11.662;2022-07-23T09:15:05;14.10;;;5.53;;
3645;SDS011;1839;48.060;11.662;2022-07-23T09:17:36;13.80;;;4.80;;
3645;SDS011;1839;48.060;11.662;2022-07-23T09:20:09;14.57;;;5.60;;
3645;SDS011;1839;48.060;11.662;2022-07-23T09:22:37;16.23;;;6.67;;
3645;SDS011;1839;48.060;11.662;2022-07-23T09:25:05;10.73;;;5.00;;
3645;SDS011;1839;48.060;11.662;2022-07-23T09:27:45;14.00;;;5.70;;
3645;SDS011;1839;48.060;11.662;2022-07-23T09:30:12;13.93;;;5.33;;
3645;SDS011;1839;48.060;11.662;2022-07-23T09:32:40;12.97;;;4.83;;
3645;SDS011;1839;48.060;11.662;2022-07-23T09:35:08;12.60;;;5.30;;
3645;SDS011;1839;48.060;11.662;2022-07-23T09:37:36;12.30;;;5.13;;
3645;SDS011;1839;48.060;11.662;2022-07-23T09:40:05;12.37;;;5.47;;
3645;SDS011;1839;48.060;11.662;2022-07-23T09:42:33;13.13;;;5.50;;
3645;SDS011;1839;48.060;11.662;2022-07-23T09:45:01;15.23;;;5.43;;
3645;SDS011;1839;48.060;11.662;2022-07-23T09:47:29;11.90;;;5.03;;
3645;SDS011;1839;48.060;11.662;2022-07-23T09:49:57;11.97;;;4.87;;
3645;SDS011;1839;48.060;11.662;2022-07-23T09:52:27;12.60;;;5.50;;
3645;SDS011;1839;48.060;11.662;2022-07-23T09:54:58;11.73;;;4.73;;
3645;SDS011;1839;48.060;11.662;2022-07-23T09:57:26;14.37;;;4.87;;
3645;SDS011;1839;48.060;11.662;2022-07-23T09:59:53;11.33;;;4.90;;
3645;SDS011;1839;48.060;11.662;2022-07-23T10:02:24;13.60;;;5.90;;
3645;SDS011;1839;48.060;11.662;2022-07-23T10:04:52;11.03;;;5.13;;
3645;SDS011;1839;48.060;11.662;2022-07-23T10:07:20;10.17;;;4.80;;
3645;SDS011;1839;48.060;11.662;2022-07-23T10:09:50;9.70;;;4.63;;
3645;SDS011;1839;48.060;11.662;2022-07-23T10:12:18;10.93;;;5.47;;
3645;SDS011;1839;48.060;11.662;2022-07-23T10:14:59;10.07;;;4.77;;
3645;SDS011;1839;48.060;11.662;2022-07-23T10:17:27;8.10;;;4.03;;
3645;SDS011;1839;48.060;11.662;2022-07-23T10:19:54;10.23;;;4.47;;
3645;SDS011;1839;48.060;11.662;2022-07-23T10:22:22;10.73;;;3.87;;
3645;SDS011;1839;48.060;11.662;2022-07-23T10:24:56;11.35;;;4.40;;
3645;SDS011;1839;48.060;11.662;2022-07-23T10:30:15;11.90;;;4.80;;
3645;SDS011;1839;48.060;11.662;2022-07-23T10:32:45;17.50;;;4.73;;
3645;SDS011;1839;48.060;11.662;2022-07-23T10:35:19;10.38;;;4.38;;
3645;SDS011;1839;48.060;11.662;2022-07-23T10:37:52;11.40;;;4.38;;
3645;SDS011;1839;48.060;11.662;2022-07-23T10:40:22;11.43;;;4.43;;
3645;SDS011;1839;48.060;11.662;2022-07-23T10:42:51;14.27;;;4.40;;
3645;SDS011;1839;48.060;11.662;2022-07-23T10:45:24;8.30;;;4.10;;
3645;SDS011;1839;48.060;11.662;2022-07-23T10:47:52;12.60;;;4.73;;
3645;SDS011;1839;48.060;11.662;2022-07-23T10:50:20;13.73;;;4.03;;
3645;SDS011;1839;48.060;11.662;2022-07-23T10:53:07;11.13;;;5.13;;
3645;SDS011;1839;48.060;11.662;2022-07-23T10:55:42;10.53;;;4.33;;
3645;SDS011;1839;48.060;11.662;2022-07-23T10:58:09;37.47;;;6.57;;
3645;SDS011;1839;48.060;11.662;2022-07-23T11:00:37;10.40;;;4.50;;
3645;SDS011;1839;48.060;11.662;2022-07-23T11:03:05;10.30;;;4.20;;
3645;SDS011;1839;48.060;11.662;2022-07-23T11:05:40;11.27;;;4.97;;
3645;SDS011;1839;48.060;11.662;2022-07-23T11:10:55;10.70;;;4.33;;
3645;SDS011;1839;48.060;11.662;2022-07-23T11:13:26;10.00;;;4.33;;
3645;SDS011;1839;48.060;11.662;2022-07-23T11:16:07;10.57;;;4.23;;
3645;SDS011;1839;48.060;11.662;2022-07-23T11:18:54;14.80;;;4.70;;
3645;SDS011;1839;48.060;11.662;2022-07-23T11:24:14;12.30;;;4.73;;
3645;SDS011;1839;48.060;11.662;2022-07-23T11:26:48;15.73;;;5.60;;
3645;SDS011;1839;48.060;11.662;2022-07-23T11:32:03;10.47;;;4.70;;
3645;SDS011;1839;48.060;11.662;2022-07-23T11:34:30;10.73;;;4.70;;
3645;SDS011;1839;48.060;11.662;2022-07-23T11:36:58;9.73;;;4.40;;
3645;SDS011;1839;48.060;11.662;2022-07-23T11:39:26;12.43;;;5.33;;
3645;SDS011;1839;48.060;11.662;2022-07-23T11:41:55;16.67;;;4.73;;
3645;SDS011;1839;48.060;11.662;2022-07-23T11:44:26;12.67;;;5.40;;
3645;SDS011;1839;48.060;11.662;2022-07-23T11:46:54;12.30;;;4.90;;
3645;SDS011;1839;48.060;11.662;2022-07-23T11:49:22;13.33;;;5.00;;
3645;SDS011;1839;48.060;11.662;2022-07-23T11:52:01;11.40;;;4.93;;
3645;SDS011;1839;48.060;11.662;2022-07-23T11:54:29;12.40;;;4.90;;
3645;SDS011;1839;48.060;11.662;2022-07-23T11:56:58;12.13;;;5.33;;
3645;SDS011;1839;48.060;11.662;2022-07-23T11:59:26;11.27;;;4.50;;
3645;SDS011;1839;48.060;11.662;2022-07-23T12:01:57;14.10;;;4.83;;
3645;SDS011;1839;48.060;11.662;2022-07-23T12:04:24;13.27;;;5.47;;
3645;SDS011;1839;48.060;11.662;2022-07-23T12:06:52;13.17;;;5.40;;
3645;SDS011;1839;48.060;11.662;2022-07-23T12:09:19;12.47;;;4.70;;
3645;SDS011;1839;48.060;11.662;2022-07-23T12:14:29;12.30;;;5.60;;
3645;SDS011;1839;48.060;11.662;2022-07-23T12:17:06;14.53;;;5.23;;
3645;SDS011;1839;48.060;11.662;2022-07-23T12:19:33;11.97;;;4.87;;
3645;SDS011;1839;48.060;11.662;2022-07-23T12:22:00;10.50;;;4.70;;
3645;SDS011;1839;48.060;11.662;2022-07-23T12:24:28;11.00;;;5.30;;
3645;SDS011;1839;48.060;11.662;2022-07-23T12:27:07;13.60;;;5.00;;
3645;SDS011;1839;48.060;11.662;2022-07-23T12:29:36;14.47;;;5.40;;
3645;SDS011;1839;48.060;11.662;2022-07-23T12:32:16;11.43;;;5.00;;
3645;SDS011;1839;48.060;11.662;2022-07-23T12:34:43;11.33;;;4.87;;
3645;SDS011;1839;48.060;11.662;2022-07-23T12:37:24;21.37;;;5.53;;
3645;SDS011;1839;48.060;11.662;2022-07-23T12:39:51;11.00;;;4.70;;
3645;SDS011;1839;48.060;11.662;2022-07-23T12:42:18;12.97;;;5.13;;
3645;SDS011;1839;48.060;11.662;2022-07-23T12:47:29;14.60;;;4.90;;
3645;SDS011;1839;48.060;11.662;2022-07-23T12:49:56;13.40;;;4.60;;
3645;SDS011;1839;48.060;11.662;2022-07-23T12:52:23;12.10;;;5.13;;
3645;SDS011;1839;48.060;11.662;2022-07-23T12:54:50;14.43;;;4.67;;
3645;SDS011;1839;48.060;11.662;2022-07-23T12:57:17;14.53;;;4.93;;
3645;SDS011;1839;48.060;11.662;2022-07-23T12:59:45;15.90;;;4.70;;
3645;SDS011;1839;48.060;11.662;2022-07-23T13:02:12;12.50;;;5.00;;
3645;SDS011;1839;48.060;11.662;2022-07-23T13:04:41;11.10;;;4.90;;
3645;SDS011;1839;48.060;11.662;2022-07-23T13:07:08;13.60;;;4.97;;
3645;SDS011;1839;48.060;11.662;2022-07-23T13:09:35;12.27;;;5.20;;
3645;SDS011;1839;48.060;11.662;2022-07-23T13:12:03;11.00;;;4.50;;
3645;SDS011;1839;48.060;11.662;2022-07-23T13:14:30;14.80;;;5.10;;
3645;SDS011;1839;48.060;11.662;2022-07-23T13:16:57;12.60;;;4.70;;
3645;SDS011;1839;48.060;11.662;2022-07-23T13:19:24;13.13;;;5.23;;
3645;SDS011;1839;48.060;11.662;2022-07-23T13:21:53;12.97;;;4.83;;
3645;SDS011;1839;48.060;11.662;2022-07-23T13:24:20;10.93;;;4.97;;
3645;SDS011;1839;48.060;11.662;2022-07-23T13:26:48;17.20;;;5.70;;
3645;SDS011;1839;48.060;11.662;2022-07-23T13:29:15;11.80;;;5.17;;
3645;SDS011;1839;48.060;11.662;2022-07-23T13:31:43;11.07;;;5.07;;
3645;SDS011;1839;48.060;11.662;2022-07-23T13:34:10;11.43;;;4.67;;
3645;SDS011;1839;48.060;11.662;2022-07-23T13:36:37;13.37;;;4.80;;
3645;SDS011;1839;48.060;11.662;2022-07-23T13:39:05;17.20;;;4.60;;
3645;SDS011;1839;48.060;11.662;2022-07-23T13:41:33;12.70;;;4.83;;
3645;SDS011;1839;48.060;11.662;2022-07-23T13:44:00;16.40;;;5.03;;
3645;SDS011;1839;48.060;11.662;2022-07-23T13:46:27;13.00;;;4.90;;
3645;SDS011;1839;48.060;11.662;2022-07-23T13:48:54;14.37;;;4.80;;
3645;SDS011;1839;48.060;11.662;2022-07-23T13:51:21;17.50;;;5.60;;
3645;SDS011;1839;48.060;11.662;2022-07-23T13:53:49;10.50;;;4.60;;
3645;SDS011;1839;48.060;11.662;2022-07-23T13:56:17;12.43;;;4.60;;
3645;SDS011;1839;48.060;11.662;2022-07-23T13:58:45;15.67;;;5.17;;
3645;SDS011;1839;48.060;11.662;2022-07-23T14:01:12;13.30;;;5.40;;
3645;SDS011;1839;48.060;11.662;2022-07-23T14:03:39;11.97;;;4.50;;
3645;SDS011;1839;48.060;11.662;2022-07-23T14:06:06;11.83;;;4.77;;
3645;SDS011;1839;48.060;11.662;2022-07-23T14:08:33;15.10;;;5.47;;
3645;SDS011;1839;48.060;11.662;2022-07-23T14:11:00;12.63;;;4.80;;
3645;SDS011;1839;48.060;11.662;2022-07-23T14:13:29;12.63;;;4.80;;
3645;SDS011;1839;48.060;11.662;2022-07-23T14:15:56;12.50;;;5.30;;
3645;SDS011;1839;48.060;11.662;2022-07-23T14:18:23;13.30;;;4.67;;
3645;SDS011;1839;48.060;11.662;2022-07-23T14:20:51;13.83;;;5.20;;
3645;SDS011;1839;48.060;11.662;2022-07-23T14:23:18;13.27;;;4.77;;
3645;SDS011;1839;48.060;11.662;2022-07-23T14:25:45;13.10;;;4.87;;
3645;SDS011;1839;48.060;11.662;2022-07-23T14:28:12;11.87;;;5.20;;
3645;SDS011;1839;48.060;11.662;2022-07-23T14:30:41;12.07;;;4.70;;
3645;SDS011;1839;48.060;11.662;2022-07-23T14:33:08;11.90;;;5.30;;
3645;SDS011;1839;48.060;11.662;2022-07-23T14:35:37;11.07;;;4.53;;
3645;SDS011;1839;48.060;11.662;2022-07-23T14:38:05;14.20;;;5.00;;
3645;SDS011;1839;48.060;11.662;2022-07-23T14:40:32;13.00;;;4.83;;
3645;SDS011;1839;48.060;11.662;2022-07-23T14:42:59;10.53;;;4.30;;
3645;SDS011;1839;48.060;11.662;2022-07-23T14:45:26;13.53;;;4.40;;
3645;SDS011;1839;48.060;11.662;2022-07-23T14:47:56;11.87;;;4.97;;
3645;SDS011;1839;48.060;11.662;2022-07-23T14:50:23;12.30;;;5.00;;
3645;SDS011;1839;48.060;11.662;2022-07-23T14:52:51;11.83;;;5.27;;
3645;SDS011;1839;48.060;11.662;2022-07-23T14:55:18;16.20;;;5.00;;
3645;SDS011;1839;48.060;11.662;2022-07-23T14:57:45;10.70;;;4.97;;
3645;SDS011;1839;48.060;11.662;2022-07-23T15:00:13;12.00;;;4.43;;
3645;SDS011;1839;48.060;11.662;2022-07-23T15:02:40;11.47;;;5.00;;
3645;SDS011;1839;48.060;11.662;2022-07-23T15:05:09;10.10;;;4.70;;
3645;SDS011;1839;48.060;11.662;2022-07-23T15:07:36;14.17;;;4.67;;
3645;SDS011;1839;48.060;11.662;2022-07-23T15:10:04;9.73;;;5.30;;
3645;SDS011;1839;48.060;11.662;2022-07-23T15:12:31;11.65;;;6.03;;
3645;SDS011;1839;48.060;11.662;2022-07-23T15:14:58;18.20;;;5.57;;
3645;SDS011;1839;48.060;11.662;2022-07-23T15:17:26;9.90;;;4.70;;
3645;SDS011;1839;48.060;11.662;2022-07-23T15:19:53;10.85;;;5.18;;
3645;SDS011;1839;48.060;11.662;2022-07-23T15:22:21;9.18;;;4.75;;
3645;SDS011;1839;48.060;11.662;2022-07-23T15:24:48;9.52;;;4.82;;
3645;SDS011;1839;48.060;11.662;2022-07-23T15:27:16;9.07;;;4.40;;
3645;SDS011;1839;48.060;11.662;2022-07-23T15:29:43;13.32;;;4.55;;
3645;SDS011;1839;48.060;11.662;2022-07-23T15:32:10;11.13;;;4.38;;
3645;SDS011;1839;48.060;11.662;2022-07-23T15:34:37;9.65;;;4.40;;
3645;SDS011;1839;48.060;11.662;2022-07-23T15:37:04;11.13;;;4.55;;
3645;SDS011;1839;48.060;11.662;2022-07-23T15:39:33;8.95;;;4.68;;
3645;SDS011;1839;48.060;11.662;2022-07-23T15:42:01;10.27;;;5.13;;
3645;SDS011;1839;48.060;11.662;2022-07-23T15:44:29;11.18;;;4.47;;
3645;SDS011;1839;48.060;11.662;2022-07-23T15:46:56;9.57;;;5.13;;
3645;SDS011;1839;48.060;11.662;2022-07-23T15:49:24;13.20;;;5.55;;
3645;SDS011;1839;48.060;11.662;2022-07-23T15:51:51;12.05;;;5.55;;
3645;SDS011;1839;48.060;11.662;2022-07-23T15:54:19;11.35;;;5.93;;
3645;SDS011;1839;48.060;11.662;2022-07-23T15:56:48;13.55;;;5.53;;
3645;SDS011;1839;48.060;11.662;2022-07-23T15:59:15;11.68;;;5.10;;
3645;SDS011;1839;48.060;11.662;2022-07-23T16:01:42;10.25;;;4.70;;
3645;SDS011;1839;48.060;11.662;2022-07-23T16:04:09;10.57;;;5.82;;
3645;SDS011;1839;48.060;11.662;2022-07-23T16:06:36;14.57;;;5.53;;
3645;SDS011;1839;48.060;11.662;2022-07-23T16:09:05;13.90;;;6.03;;
3645;SDS011;1839;48.060;11.662;2022-07-23T16:11:32;14.50;;;6.47;;
3645;SDS011;1839;48.060;11.662;2022-07-23T16:14:01;12.25;;;5.93;;
3645;SDS011;1839;48.060;11.662;2022-07-23T16:16:28;11.70;;;5.87;;
3645;SDS011;1839;48.060;11.662;2022-07-23T16:18:56;12.13;;;6.10;;
3645;SDS011;1839;48.060;11.662;2022-07-23T16:21:23;12.77;;;6.27;;
3645;SDS011;1839;48.060;11.662;2022-07-23T16:23:50;12.63;;;5.33;;
3645;SDS011;1839;48.060;11.662;2022-07-23T16:26:18;11.57;;;5.77;;
3645;SDS011;1839;48.060;11.662;2022-07-23T16:28:45;14.40;;;6.43;;
3645;SDS011;1839;48.060;11.662;2022-07-23T16:31:14;15.73;;;6.20;;
3645;SDS011;1839;48.060;11.662;2022-07-23T16:33:41;14.13;;;6.20;;
3645;SDS011;1839;48.060;11.662;2022-07-23T16:36:08;14.00;;;6.60;;
3645;SDS011;1839;48.060;11.662;2022-07-23T16:38:36;15.10;;;6.90;;
3645;SDS011;1839;48.060;11.662;2022-07-23T16:41:04;19.90;;;7.00;;
3645;SDS011;1839;48.060;11.662;2022-07-23T16:43:31;13.60;;;6.33;;
3645;SDS011;1839;48.060;11.662;2022-07-23T16:45:58;16.50;;;6.60;;
3645;SDS011;1839;48.060;11.662;2022-07-23T16:48:27;13.70;;;6.67;;
3645;SDS011;1839;48.060;11.662;2022-07-23T16:50:54;16.20;;;7.10;;
3645;SDS011;1839;48.060;11.662;2022-07-23T16:53:21;13.57;;;7.30;;
3645;SDS011;1839;48.060;11.662;2022-07-23T16:55:48;14.37;;;6.93;;
3645;SDS011;1839;48.060;11.662;2022-07-23T16:58:16;13.10;;;5.77;;
3645;SDS011;1839;48.060;11.662;2022-07-23T17:00:43;17.50;;;8.03;;
3645;SDS011;1839;48.060;11.662;2022-07-23T17:03:10;14.97;;;6.73;;
3645;SDS011;1839;48.060;11.662;2022-07-23T17:05:38;14.90;;;7.30;;
3645;SDS011;1839;48.060;11.662;2022-07-23T17:08:06;13.30;;;6.40;;
3645;SDS011;1839;48.060;11.662;2022-07-23T17:10:33;18.60;;;7.03;;
3645;SDS011;1839;48.060;11.662;2022-07-23T17:13:00;18.10;;;7.17;;
3645;SDS011;1839;48.060;11.662;2022-07-23T17:15:27;13.83;;;7.60;;
3645;SDS011;1839;48.060;11.662;2022-07-23T17:17:54;14.50;;;6.97;;
3645;SDS011;1839;48.060;11.662;2022-07-23T17:20:22;12.47;;;6.07;;
3645;SDS011;1839;48.060;11.662;2022-07-23T17:22:50;16.27;;;6.87;;
3645;SDS011;1839;48.060;11.662;2022-07-23T17:25:17;16.30;;;7.70;;
3645;SDS011;1839;48.060;11.662;2022-07-23T17:27:45;14.77;;;7.60;;
3645;SDS011;1839;48.060;11.662;2022-07-23T17:30:12;15.40;;;7.20;;
3645;SDS011;1839;48.060;11.662;2022-07-23T17:32:40;18.10;;;7.80;;
3645;SDS011;1839;48.060;11.662;2022-07-23T17:35:08;15.93;;;7.93;;
3645;SDS011;1839;48.060;11.662;2022-07-23T17:37:35;18.53;;;7.57;;
3645;SDS011;1839;48.060;11.662;2022-07-23T17:40:05;17.73;;;7.30;;
3645;SDS011;1839;48.060;11.662;2022-07-23T17:42:32;21.10;;;7.93;;
3645;SDS011;1839;48.060;11.662;2022-07-23T17:45:02;23.30;;;7.87;;
3645;SDS011;1839;48.060;11.662;2022-07-23T17:47:29;17.60;;;8.03;;
3645;SDS011;1839;48.060;11.662;2022-07-23T17:49:56;18.60;;;7.80;;
3645;SDS011;1839;48.060;11.662;2022-07-23T17:52:24;21.70;;;9.70;;
3645;SDS011;1839;48.060;11.662;2022-07-23T17:54:51;16.67;;;7.70;;
3645;SDS011;1839;48.060;11.662;2022-07-23T17:57:19;16.80;;;7.93;;
3645;SDS011;1839;48.060;11.662;2022-07-23T17:59:47;21.30;;;8.10;;
3645;SDS011;1839;48.060;11.662;2022-07-23T18:02:14;17.10;;;7.70;;
3645;SDS011;1839;48.060;11.662;2022-07-23T18:04:41;17.90;;;7.00;;
3645;SDS011;1839;48.060;11.662;2022-07-23T18:07:08;18.03;;;7.03;;
3645;SDS011;1839;48.060;11.662;2022-07-23T18:09:35;14.30;;;6.90;;
3645;SDS011;1839;48.060;11.662;2022-07-23T18:12:03;17.50;;;7.90;;
3645;SDS011;1839;48.060;11.662;2022-07-23T18:14:31;18.30;;;7.87;;
3645;SDS011;1839;48.060;11.662;2022-07-23T18:16:58;16.13;;;7.23;;
3645;SDS011;1839;48.060;11.662;2022-07-23T18:19:26;17.20;;;7.50;;
3645;SDS011;1839;48.060;11.662;2022-07-23T18:21:53;15.40;;;7.20;;
3645;SDS011;1839;48.060;11.662;2022-07-23T18:24:20;17.77;;;8.07;;
3645;SDS011;1839;48.060;11.662;2022-07-23T18:26:49;17.37;;;8.10;;
3645;SDS011;1839;48.060;11.662;2022-07-23T18:29:17;19.50;;;9.77;;
3645;SDS011;1839;48.060;11.662;2022-07-23T18:31:45;21.77;;;8.77;;
3645;SDS011;1839;48.060;11.662;2022-07-23T18:34:13;16.57;;;8.20;;
3645;SDS011;1839;48.060;11.662;2022-07-23T18:36:40;19.83;;;8.90;;
3645;SDS011;1839;48.060;11.662;2022-07-23T18:39:07;20.03;;;9.10;;
3645;SDS011;1839;48.060;11.662;2022-07-23T18:41:35;18.30;;;9.10;;
3645;SDS011;1839;48.060;11.662;2022-07-23T18:44:02;20.90;;;11.37;;
3645;SDS011;1839;48.060;11.662;2022-07-23T18:46:30;18.53;;;10.30;;
3645;SDS011;1839;48.060;11.662;2022-07-23T18:48:58;19.90;;;12.23;;
3645;SDS011;1839;48.060;11.662;2022-07-23T18:51:26;23.60;;;12.63;;
3645;SDS011;1839;48.060;11.662;2022-07-23T18:53:53;25.87;;;15.17;;
3645;SDS011;1839;48.060;11.662;2022-07-23T18:56:20;23.33;;;12.57;;
3645;SDS011;1839;48.060;11.662;2022-07-23T18:58:47;23.57;;;14.70;;
3645;SDS011;1839;48.060;11.662;2022-07-23T19:01:14;23.93;;;13.77;;
3645;SDS011;1839;48.060;11.662;2022-07-23T19:03:42;25.33;;;12.87;;
3645;SDS011;1839;48.060;11.662;2022-07-23T19:06:10;24.17;;;13.77;;
3645;SDS011;1839;48.060;11.662;2022-07-23T19:08:37;24.67;;;14.40;;
3645;SDS011;1839;48.060;11.662;2022-07-23T19:11:06;23.40;;;16.27;;
3645;SDS011;1839;48.060;11.662;2022-07-23T19:13:33;23.00;;;16.70;;
3645;SDS011;1839;48.060;11.662;2022-07-23T19:16:01;30.50;;;23.00;;
3645;SDS011;1839;48.060;11.662;2022-07-23T19:18:30;25.10;;;17.83;;
3645;SDS011;1839;48.060;11.662;2022-07-23T19:20:57;22.97;;;17.07;;
3645;SDS011;1839;48.060;11.662;2022-07-23T19:23:26;27.90;;;20.77;;
3645;SDS011;1839;48.060;11.662;2022-07-23T19:25:53;25.80;;;17.93;;
3645;SDS011;1839;48.060;11.662;2022-07-23T19:28:20;26.07;;;17.07;;
3645;SDS011;1839;48.060;11.662;2022-07-23T19:30:48;26.47;;;17.10;;
3645;SDS011;1839;48.060;11.662;2022-07-23T19:33:15;23.90;;;16.57;;
3645;SDS011;1839;48.060;11.662;2022-07-23T19:35:42;23.33;;;17.20;;
3645;SDS011;1839;48.060;11.662;2022-07-23T19:38:11;27.00;;;20.40;;
3645;SDS011;1839;48.060;11.662;2022-07-23T19:40:39;24.77;;;18.17;;
3645;SDS011;1839;48.060;11.662;2022-07-23T19:43:07;24.37;;;18.40;;
3645;SDS011;1839;48.060;11.662;2022-07-23T19:45:34;27.63;;;20.80;;
3645;SDS011;1839;48.060;11.662;2022-07-23T19:48:01;28.20;;;18.00;;
3645;SDS011;1839;48.060;11.662;2022-07-23T19:50:29;25.27;;;14.53;;
3645;SDS011;1839;48.060;11.662;2022-07-23T19:52:56;25.97;;;19.47;;
3645;SDS011;1839;48.060;11.662;2022-07-23T19:55:23;23.20;;;15.97;;
3645;SDS011;1839;48.060;11.662;2022-07-23T19:57:52;29.60;;;19.43;;
3645;SDS011;1839;48.060;11.662;2022-07-23T20:00:20;25.90;;;15.53;;
3645;SDS011;1839;48.060;11.662;2022-07-23T20:02:47;25.60;;;15.73;;
3645;SDS011;1839;48.060;11.662;2022-07-23T20:05:15;23.57;;;14.63;;
3645;SDS011;1839;48.060;11.662;2022-07-23T20:07:42;23.00;;;15.57;;
3645;SDS011;1839;48.060;11.662;2022-07-23T20:10:09;22.77;;;13.87;;